Terminal Aerodrome Forecast
Issued by NWS Grand Forks, ND

Home | Current Version | Previous Version | Graphics & Text | Print | Product List | Glossary On
Versions: 1 2 3 4 5 6 7 8 9 10 11 12 13 14 15 16 17 18 19 20 21 22 23 24
779
FTUS43 KFGF 181332 AAA
TAFFAR
TAF AMD
KFAR 181332Z 1814/1912 07012KT P6SM BKN040
     FM181600 06012KT P6SM OVC020
     FM181700 04013KT P6SM OVC015
     FM182000 36017G25KT P6SM OVC015
     FM190100 36015KT P6SM BKN035=

USA.gov is the U.S. government's official web portal to all federal, state and local government web resources and services.